sensor_id;sensor_type;location;lat;lon;timestamp;temperature;humidity
56300;DHT22;42209;6.376;-10.782;2023-08-07T00:01:06;22.20;67.80
56300;DHT22;42209;6.376;-10.782;2023-08-07T00:03:34;22.20;68.50
56300;DHT22;42209;6.376;-10.782;2023-08-07T00:06:06;22.30;68.90
56300;DHT22;42209;6.376;-10.782;2023-08-07T00:08:44;22.40;68.90
56300;DHT22;42209;6.376;-10.782;2023-08-07T00:11:13;22.60;69.10
56300;DHT22;42209;6.376;-10.782;2023-08-07T00:13:41;22.70;69.00
56300;DHT22;42209;6.376;-10.782;2023-08-07T00:16:09;22.80;68.50
56300;DHT22;42209;6.376;-10.782;2023-08-07T00:18:38;22.70;63.20
56300;DHT22;42209;6.376;-10.782;2023-08-07T00:21:06;22.40;60.00
56300;DHT22;42209;6.376;-10.782;2023-08-07T00:23:35;22.10;58.50
56300;DHT22;42209;6.376;-10.782;2023-08-07T00:26:03;22.00;57.50
56300;DHT22;42209;6.376;-10.782;2023-08-07T00:28:31;21.80;56.10
56300;DHT22;42209;6.376;-10.782;2023-08-07T00:31:00;21.70;55.00
56300;DHT22;42209;6.376;-10.782;2023-08-07T00:33:28;21.60;53.90
56300;DHT22;42209;6.376;-10.782;2023-08-07T00:35:57;21.60;53.20
56300;DHT22;42209;6.376;-10.782;2023-08-07T00:38:25;21.50;52.60
56300;DHT22;42209;6.376;-10.782;2023-08-07T00:40:54;21.40;51.90
56300;DHT22;42209;6.376;-10.782;2023-08-07T00:43:22;21.50;53.60
56300;DHT22;42209;6.376;-10.782;2023-08-07T00:45:51;21.70;58.70
56300;DHT22;42209;6.376;-10.782;2023-08-07T00:48:19;21.90;62.70
56300;DHT22;42209;6.376;-10.782;2023-08-07T00:50:48;22.00;64.90
56300;DHT22;42209;6.376;-10.782;2023-08-07T00:53:17;22.10;67.50
56300;DHT22;42209;6.376;-10.782;2023-08-07T00:55:46;22.20;69.10
56300;DHT22;42209;6.376;-10.782;2023-08-07T00:58:14;22.30;70.90
56300;DHT22;42209;6.376;-10.782;2023-08-07T01:00:43;22.30;71.40
56300;DHT22;42209;6.376;-10.782;2023-08-07T01:03:12;22.40;71.10
56300;DHT22;42209;6.376;-10.782;2023-08-07T01:05:41;22.60;71.10
56300;DHT22;42209;6.376;-10.782;2023-08-07T01:08:09;22.70;71.40
56300;DHT22;42209;6.376;-10.782;2023-08-07T01:11:07;22.80;71.90
56300;DHT22;42209;6.376;-10.782;2023-08-07T01:13:59;22.90;70.40
56300;DHT22;42209;6.376;-10.782;2023-08-07T01:16:35;22.60;63.60
56300;DHT22;42209;6.376;-10.782;2023-08-07T01:19:12;22.30;61.00
56300;DHT22;42209;6.376;-10.782;2023-08-07T01:21:49;22.10;59.40
56300;DHT22;42209;6.376;-10.782;2023-08-07T01:24:17;21.90;57.80
56300;DHT22;42209;6.376;-10.782;2023-08-07T01:26:45;21.80;56.80
56300;DHT22;42209;6.376;-10.782;2023-08-07T01:29:26;21.70;55.80
56300;DHT22;42209;6.376;-10.782;2023-08-07T01:31:57;21.60;54.60
56300;DHT22;42209;6.376;-10.782;2023-08-07T01:34:28;21.60;54.10
56300;DHT22;42209;6.376;-10.782;2023-08-07T01:36:58;21.60;54.20
56300;DHT22;42209;6.376;-10.782;2023-08-07T01:39:27;21.60;58.10
56300;DHT22;42209;6.376;-10.782;2023-08-07T01:41:57;21.80;63.10
56300;DHT22;42209;6.376;-10.782;2023-08-07T01:44:25;22.00;66.10
56300;DHT22;42209;6.376;-10.782;2023-08-07T01:46:54;22.10;68.10
56300;DHT22;42209;6.376;-10.782;2023-08-07T01:49:22;22.20;69.60
56300;DHT22;42209;6.376;-10.782;2023-08-07T01:51:51;22.30;70.80
56300;DHT22;42209;6.376;-10.782;2023-08-07T01:54:20;22.30;71.30
56300;DHT22;42209;6.376;-10.782;2023-08-07T01:56:48;22.50;71.70
56300;DHT22;42209;6.376;-10.782;2023-08-07T01:59:16;22.60;71.90
56300;DHT22;42209;6.376;-10.782;2023-08-07T02:01:45;22.70;72.10
56300;DHT22;42209;6.376;-10.782;2023-08-07T02:04:13;22.80;71.90
56300;DHT22;42209;6.376;-10.782;2023-08-07T02:06:42;22.90;71.50
56300;DHT22;42209;6.376;-10.782;2023-08-07T02:09:10;22.90;67.20
56300;DHT22;42209;6.376;-10.782;2023-08-07T02:11:38;22.60;62.70
56300;DHT22;42209;6.376;-10.782;2023-08-07T02:14:07;22.40;60.40
56300;DHT22;42209;6.376;-10.782;2023-08-07T02:16:36;22.20;59.30
56300;DHT22;42209;6.376;-10.782;2023-08-07T02:19:04;22.00;57.40
56300;DHT22;42209;6.376;-10.782;2023-08-07T02:21:33;21.90;56.00
56300;DHT22;42209;6.376;-10.782;2023-08-07T02:24:01;21.80;55.00
56300;DHT22;42209;6.376;-10.782;2023-08-07T02:26:30;21.60;53.90
56300;DHT22;42209;6.376;-10.782;2023-08-07T02:28:58;21.50;53.50
56300;DHT22;42209;6.376;-10.782;2023-08-07T02:31:26;21.60;52.80
56300;DHT22;42209;6.376;-10.782;2023-08-07T02:33:55;21.50;52.00
56300;DHT22;42209;6.376;-10.782;2023-08-07T02:36:23;21.60;55.70
56300;DHT22;42209;6.376;-10.782;2023-08-07T02:38:52;21.70;60.80
56300;DHT22;42209;6.376;-10.782;2023-08-07T02:41:21;21.90;63.40
56300;DHT22;42209;6.376;-10.782;2023-08-07T02:43:49;22.00;65.90
56300;DHT22;42209;6.376;-10.782;2023-08-07T02:46:17;22.10;67.70
56300;DHT22;42209;6.376;-10.782;2023-08-07T02:48:46;22.20;68.90
56300;DHT22;42209;6.376;-10.782;2023-08-07T02:51:14;22.30;70.00
56300;DHT22;42209;6.376;-10.782;2023-08-07T02:53:43;22.40;70.30
56300;DHT22;42209;6.376;-10.782;2023-08-07T02:56:11;22.50;69.70
56300;DHT22;42209;6.376;-10.782;2023-08-07T02:58:40;22.60;70.30
56300;DHT22;42209;6.376;-10.782;2023-08-07T03:01:08;22.70;70.10
56300;DHT22;42209;6.376;-10.782;2023-08-07T03:03:37;22.90;70.20
56300;DHT22;42209;6.376;-10.782;2023-08-07T03:06:06;22.90;69.40
56300;DHT22;42209;6.376;-10.782;2023-08-07T03:08:34;22.70;63.70
56300;DHT22;42209;6.376;-10.782;2023-08-07T03:11:03;22.40;60.60
56300;DHT22;42209;6.376;-10.782;2023-08-07T03:13:31;22.20;58.90
56300;DHT22;42209;6.376;-10.782;2023-08-07T03:16:01;22.00;57.40
56300;DHT22;42209;6.376;-10.782;2023-08-07T03:18:31;21.80;56.50
56300;DHT22;42209;6.376;-10.782;2023-08-07T03:20:59;21.70;55.20
56300;DHT22;42209;6.376;-10.782;2023-08-07T03:23:28;21.70;54.20
56300;DHT22;42209;6.376;-10.782;2023-08-07T03:26:04;21.60;53.00
56300;DHT22;42209;6.376;-10.782;2023-08-07T03:28:38;21.50;52.60
56300;DHT22;42209;6.376;-10.782;2023-08-07T03:31:07;21.50;53.20
56300;DHT22;42209;6.376;-10.782;2023-08-07T03:33:37;21.70;58.60
56300;DHT22;42209;6.376;-10.782;2023-08-07T03:36:05;21.80;62.90
56300;DHT22;42209;6.376;-10.782;2023-08-07T03:38:33;22.00;65.10
56300;DHT22;42209;6.376;-10.782;2023-08-07T03:41:02;22.10;67.20
56300;DHT22;42209;6.376;-10.782;2023-08-07T03:43:32;22.20;69.40
56300;DHT22;42209;6.376;-10.782;2023-08-07T03:46:00;22.20;69.90
56300;DHT22;42209;6.376;-10.782;2023-08-07T03:48:31;22.30;70.20
56300;DHT22;42209;6.376;-10.782;2023-08-07T03:51:05;22.40;70.80
56300;DHT22;42209;6.376;-10.782;2023-08-07T03:53:40;22.60;70.50
56300;DHT22;42209;6.376;-10.782;2023-08-07T03:56:08;22.70;70.80
56300;DHT22;42209;6.376;-10.782;2023-08-07T03:58:37;22.80;70.80
56300;DHT22;42209;6.376;-10.782;2023-08-07T04:01:06;22.90;70.60
56300;DHT22;42209;6.376;-10.782;2023-08-07T04:03:35;22.80;65.70
56300;DHT22;42209;6.376;-10.782;2023-08-07T04:06:03;22.50;62.40
56300;DHT22;42209;6.376;-10.782;2023-08-07T04:08:31;22.30;60.30
56300;DHT22;42209;6.376;-10.782;2023-08-07T04:11:04;22.10;58.60
56300;DHT22;42209;6.376;-10.782;2023-08-07T04:13:34;21.90;57.20
56300;DHT22;42209;6.376;-10.782;2023-08-07T04:16:03;21.80;55.90
56300;DHT22;42209;6.376;-10.782;2023-08-07T04:18:35;21.70;55.00
56300;DHT22;42209;6.376;-10.782;2023-08-07T04:21:04;21.60;54.70
56300;DHT22;42209;6.376;-10.782;2023-08-07T04:23:33;21.70;58.20
56300;DHT22;42209;6.376;-10.782;2023-08-07T04:26:01;21.90;63.70
56300;DHT22;42209;6.376;-10.782;2023-08-07T04:28:30;22.00;66.40
56300;DHT22;42209;6.376;-10.782;2023-08-07T04:30:58;22.10;68.20
56300;DHT22;42209;6.376;-10.782;2023-08-07T04:33:27;22.20;69.60
56300;DHT22;42209;6.376;-10.782;2023-08-07T04:35:56;22.30;71.10
56300;DHT22;42209;6.376;-10.782;2023-08-07T04:38:24;22.30;72.00
56300;DHT22;42209;6.376;-10.782;2023-08-07T04:40:53;22.40;71.90
56300;DHT22;42209;6.376;-10.782;2023-08-07T04:43:21;22.50;72.20
56300;DHT22;42209;6.376;-10.782;2023-08-07T04:45:50;22.70;72.10
56300;DHT22;42209;6.376;-10.782;2023-08-07T04:48:18;22.80;71.90
56300;DHT22;42209;6.376;-10.782;2023-08-07T04:50:46;22.90;71.40
56300;DHT22;42209;6.376;-10.782;2023-08-07T04:53:15;22.90;67.30
56300;DHT22;42209;6.376;-10.782;2023-08-07T04:55:43;22.60;63.30
56300;DHT22;42209;6.376;-10.782;2023-08-07T04:58:12;22.30;61.20
56300;DHT22;42209;6.376;-10.782;2023-08-07T05:00:40;22.10;59.30
56300;DHT22;42209;6.376;-10.782;2023-08-07T05:03:09;21.90;57.90
56300;DHT22;42209;6.376;-10.782;2023-08-07T05:05:37;21.80;56.70
56300;DHT22;42209;6.376;-10.782;2023-08-07T05:08:06;21.70;55.40
56300;DHT22;42209;6.376;-10.782;2023-08-07T05:10:34;21.60;54.90
56300;DHT22;42209;6.376;-10.782;2023-08-07T05:13:03;21.70;58.00
56300;DHT22;42209;6.376;-10.782;2023-08-07T05:15:33;21.90;63.80
56300;DHT22;42209;6.376;-10.782;2023-08-07T05:18:02;22.00;67.10
56300;DHT22;42209;6.376;-10.782;2023-08-07T05:20:30;22.10;69.20
56300;DHT22;42209;6.376;-10.782;2023-08-07T05:22:59;22.20;70.20
56300;DHT22;42209;6.376;-10.782;2023-08-07T05:25:27;22.30;72.40
56300;DHT22;42209;6.376;-10.782;2023-08-07T05:27:56;22.40;73.10
56300;DHT22;42209;6.376;-10.782;2023-08-07T05:30:24;22.40;72.90
56300;DHT22;42209;6.376;-10.782;2023-08-07T05:32:53;22.50;73.20
56300;DHT22;42209;6.376;-10.782;2023-08-07T05:35:21;22.70;73.20
56300;DHT22;42209;6.376;-10.782;2023-08-07T05:37:50;22.70;72.50
56300;DHT22;42209;6.376;-10.782;2023-08-07T05:40:18;22.80;73.10
56300;DHT22;42209;6.376;-10.782;2023-08-07T05:42:47;22.90;72.70
56300;DHT22;42209;6.376;-10.782;2023-08-07T05:45:16;22.80;66.80
56300;DHT22;42209;6.376;-10.782;2023-08-07T05:47:44;22.50;62.90
56300;DHT22;42209;6.376;-10.782;2023-08-07T05:50:13;22.30;60.90
56300;DHT22;42209;6.376;-10.782;2023-08-07T05:52:41;22.10;59.30
56300;DHT22;42209;6.376;-10.782;2023-08-07T05:55:10;21.90;57.90
56300;DHT22;42209;6.376;-10.782;2023-08-07T05:57:38;21.80;56.80
56300;DHT22;42209;6.376;-10.782;2023-08-07T06:00:07;21.70;55.50
56300;DHT22;42209;6.376;-10.782;2023-08-07T06:02:38;21.60;55.90
56300;DHT22;42209;6.376;-10.782;2023-08-07T06:05:07;21.80;62.90
56300;DHT22;42209;6.376;-10.782;2023-08-07T06:07:35;21.90;66.20
56300;DHT22;42209;6.376;-10.782;2023-08-07T06:10:04;22.00;68.90
56300;DHT22;42209;6.376;-10.782;2023-08-07T06:12:36;22.20;69.90
56300;DHT22;42209;6.376;-10.782;2023-08-07T06:15:05;22.20;71.50
56300;DHT22;42209;6.376;-10.782;2023-08-07T06:17:34;22.30;72.70
56300;DHT22;42209;6.376;-10.782;2023-08-07T06:20:02;22.40;73.00
56300;DHT22;42209;6.376;-10.782;2023-08-07T06:22:31;22.40;73.30
56300;DHT22;42209;6.376;-10.782;2023-08-07T06:24:59;22.60;73.50
56300;DHT22;42209;6.376;-10.782;2023-08-07T06:27:27;22.70;72.90
56300;DHT22;42209;6.376;-10.782;2023-08-07T06:29:56;22.80;72.90
56300;DHT22;42209;6.376;-10.782;2023-08-07T06:32:28;22.80;72.90
56300;DHT22;42209;6.376;-10.782;2023-08-07T06:34:57;23.00;72.70
56300;DHT22;42209;6.376;-10.782;2023-08-07T06:37:26;22.70;66.20
56300;DHT22;42209;6.376;-10.782;2023-08-07T06:39:54;22.40;63.40
56300;DHT22;42209;6.376;-10.782;2023-08-07T06:42:22;22.20;61.80
56300;DHT22;42209;6.376;-10.782;2023-08-07T06:44:51;22.00;60.10
56300;DHT22;42209;6.376;-10.782;2023-08-07T06:47:19;21.90;58.90
56300;DHT22;42209;6.376;-10.782;2023-08-07T06:49:48;21.80;57.70
56300;DHT22;42209;6.376;-10.782;2023-08-07T06:52:17;21.80;62.40
56300;DHT22;42209;6.376;-10.782;2023-08-07T06:54:45;22.00;67.60
56300;DHT22;42209;6.376;-10.782;2023-08-07T06:57:14;22.10;70.50
56300;DHT22;42209;6.376;-10.782;2023-08-07T06:59:53;22.20;72.90
56300;DHT22;42209;6.376;-10.782;2023-08-07T07:02:21;22.30;75.20
56300;DHT22;42209;6.376;-10.782;2023-08-07T07:04:50;22.40;76.80
56300;DHT22;42209;6.376;-10.782;2023-08-07T07:07:18;22.40;78.80
56300;DHT22;42209;6.376;-10.782;2023-08-07T07:09:47;22.50;80.00
56300;DHT22;42209;6.376;-10.782;2023-08-07T07:12:16;22.70;81.20
56300;DHT22;42209;6.376;-10.782;2023-08-07T07:14:44;22.80;83.00
56300;DHT22;42209;6.376;-10.782;2023-08-07T07:17:12;22.90;84.20
56300;DHT22;42209;6.376;-10.782;2023-08-07T07:19:42;23.00;82.20
56300;DHT22;42209;6.376;-10.782;2023-08-07T07:22:10;22.80;76.50
56300;DHT22;42209;6.376;-10.782;2023-08-07T07:24:39;22.60;73.00
56300;DHT22;42209;6.376;-10.782;2023-08-07T07:27:07;22.40;70.20
56300;DHT22;42209;6.376;-10.782;2023-08-07T07:29:36;22.20;68.50
56300;DHT22;42209;6.376;-10.782;2023-08-07T07:32:05;22.10;66.60
56300;DHT22;42209;6.376;-10.782;2023-08-07T07:34:33;22.00;65.60
56300;DHT22;42209;6.376;-10.782;2023-08-07T07:37:03;21.90;64.70
56300;DHT22;42209;6.376;-10.782;2023-08-07T07:39:32;21.80;62.90
56300;DHT22;42209;6.376;-10.782;2023-08-07T07:42:00;21.80;62.50
56300;DHT22;42209;6.376;-10.782;2023-08-07T07:44:28;21.70;61.60
56300;DHT22;42209;6.376;-10.782;2023-08-07T07:46:57;21.60;60.60
56300;DHT22;42209;6.376;-10.782;2023-08-07T07:49:26;21.60;59.60
56300;DHT22;42209;6.376;-10.782;2023-08-07T07:51:55;21.50;58.90
56300;DHT22;42209;6.376;-10.782;2023-08-07T07:54:23;21.50;58.30
56300;DHT22;42209;6.376;-10.782;2023-08-07T07:56:52;21.50;59.80
56300;DHT22;42209;6.376;-10.782;2023-08-07T07:59:20;21.60;64.20
56300;DHT22;42209;6.376;-10.782;2023-08-07T08:01:49;21.80;69.80
56300;DHT22;42209;6.376;-10.782;2023-08-07T08:04:18;21.90;73.70
56300;DHT22;42209;6.376;-10.782;2023-08-07T08:06:47;22.10;74.50
56300;DHT22;42209;6.376;-10.782;2023-08-07T08:09:15;22.20;75.80
56300;DHT22;42209;6.376;-10.782;2023-08-07T08:11:43;22.20;76.90
56300;DHT22;42209;6.376;-10.782;2023-08-07T08:16:50;22.40;78.00
56300;DHT22;42209;6.376;-10.782;2023-08-07T08:19:20;22.60;78.20
56300;DHT22;42209;6.376;-10.782;2023-08-07T08:21:49;22.60;79.30
56300;DHT22;42209;6.376;-10.782;2023-08-07T08:24:17;22.60;80.80
56300;DHT22;42209;6.376;-10.782;2023-08-07T08:26:46;22.70;80.70
56300;DHT22;42209;6.376;-10.782;2023-08-07T08:29:15;22.80;79.80
56300;DHT22;42209;6.376;-10.782;2023-08-07T08:31:43;22.90;80.10
56300;DHT22;42209;6.376;-10.782;2023-08-07T08:34:12;22.90;80.10
56300;DHT22;42209;6.376;-10.782;2023-08-07T08:36:41;22.90;74.60
56300;DHT22;42209;6.376;-10.782;2023-08-07T08:39:12;22.60;70.40
56300;DHT22;42209;6.376;-10.782;2023-08-07T08:41:47;22.40;67.70
56300;DHT22;42209;6.376;-10.782;2023-08-07T08:44:19;22.10;65.40
56300;DHT22;42209;6.376;-10.782;2023-08-07T08:46:49;21.90;63.10
56300;DHT22;42209;6.376;-10.782;2023-08-07T08:49:21;21.80;62.30
56300;DHT22;42209;6.376;-10.782;2023-08-07T08:51:51;21.90;67.50
56300;DHT22;42209;6.376;-10.782;2023-08-07T08:54:19;22.00;71.50
56300;DHT22;42209;6.376;-10.782;2023-08-07T08:56:47;22.20;73.70
56300;DHT22;42209;6.376;-10.782;2023-08-07T08:59:16;22.20;75.10
56300;DHT22;42209;6.376;-10.782;2023-08-07T09:01:46;22.30;76.30
56300;DHT22;42209;6.376;-10.782;2023-08-07T09:04:15;22.40;77.60
56300;DHT22;42209;6.376;-10.782;2023-08-07T09:06:43;22.40;78.10
56300;DHT22;42209;6.376;-10.782;2023-08-07T09:09:14;22.50;78.70
56300;DHT22;42209;6.376;-10.782;2023-08-07T09:11:47;22.60;78.00
56300;DHT22;42209;6.376;-10.782;2023-08-07T09:14:17;22.70;78.50
56300;DHT22;42209;6.376;-10.782;2023-08-07T09:16:48;22.80;78.50
56300;DHT22;42209;6.376;-10.782;2023-08-07T09:19:17;22.90;78.40
56300;DHT22;42209;6.376;-10.782;2023-08-07T09:21:55;22.90;77.80
56300;DHT22;42209;6.376;-10.782;2023-08-07T09:24:24;22.90;72.60
56300;DHT22;42209;6.376;-10.782;2023-08-07T09:26:52;22.70;68.30
56300;DHT22;42209;6.376;-10.782;2023-08-07T09:29:22;22.40;65.80
56300;DHT22;42209;6.376;-10.782;2023-08-07T09:31:51;22.20;63.70
56300;DHT22;42209;6.376;-10.782;2023-08-07T09:34:22;22.00;61.90
56300;DHT22;42209;6.376;-10.782;2023-08-07T09:36:52;21.90;60.60
56300;DHT22;42209;6.376;-10.782;2023-08-07T09:39:23;21.80;59.80
56300;DHT22;42209;6.376;-10.782;2023-08-07T09:41:54;21.80;59.40
56300;DHT22;42209;6.376;-10.782;2023-08-07T09:44:22;21.70;58.40
56300;DHT22;42209;6.376;-10.782;2023-08-07T09:46:51;21.70;57.00
56300;DHT22;42209;6.376;-10.782;2023-08-07T09:49:20;21.60;56.10
56300;DHT22;42209;6.376;-10.782;2023-08-07T09:51:49;21.60;55.40
56300;DHT22;42209;6.376;-10.782;2023-08-07T09:54:18;21.50;55.00
56300;DHT22;42209;6.376;-10.782;2023-08-07T09:56:47;21.40;54.30
56300;DHT22;42209;6.376;-10.782;2023-08-07T09:59:15;21.40;55.10
56300;DHT22;42209;6.376;-10.782;2023-08-07T10:01:44;21.60;62.30
56300;DHT22;42209;6.376;-10.782;2023-08-07T10:04:14;21.80;65.80
56300;DHT22;42209;6.376;-10.782;2023-08-07T10:06:44;21.90;67.80
56300;DHT22;42209;6.376;-10.782;2023-08-07T10:09:13;22.00;70.10
56300;DHT22;42209;6.376;-10.782;2023-08-07T10:11:42;22.10;71.20
56300;DHT22;42209;6.376;-10.782;2023-08-07T10:14:11;22.20;72.70
56300;DHT22;42209;6.376;-10.782;2023-08-07T10:16:41;22.30;74.30
56300;DHT22;42209;6.376;-10.782;2023-08-07T10:19:09;22.40;75.00
56300;DHT22;42209;6.376;-10.782;2023-08-07T10:21:38;22.40;75.30
56300;DHT22;42209;6.376;-10.782;2023-08-07T10:24:09;22.60;75.00
56300;DHT22;42209;6.376;-10.782;2023-08-07T10:26:44;22.70;75.00
56300;DHT22;42209;6.376;-10.782;2023-08-07T10:29:17;22.80;75.50
56300;DHT22;42209;6.376;-10.782;2023-08-07T10:31:46;22.90;74.70
56300;DHT22;42209;6.376;-10.782;2023-08-07T10:34:17;22.70;69.10
56300;DHT22;42209;6.376;-10.782;2023-08-07T10:36:46;22.50;65.60
56300;DHT22;42209;6.376;-10.782;2023-08-07T10:39:15;22.30;63.40
56300;DHT22;42209;6.376;-10.782;2023-08-07T10:41:48;22.10;62.00
56300;DHT22;42209;6.376;-10.782;2023-08-07T10:44:22;22.00;60.30
56300;DHT22;42209;6.376;-10.782;2023-08-07T10:46:56;21.90;59.50
56300;DHT22;42209;6.376;-10.782;2023-08-07T10:49:36;21.80;58.10
56300;DHT22;42209;6.376;-10.782;2023-08-07T10:52:11;21.70;56.90
56300;DHT22;42209;6.376;-10.782;2023-08-07T10:54:50;21.70;56.10
56300;DHT22;42209;6.376;-10.782;2023-08-07T10:57:19;21.60;55.80
56300;DHT22;42209;6.376;-10.782;2023-08-07T10:59:50;21.60;55.00
56300;DHT22;42209;6.376;-10.782;2023-08-07T11:02:26;21.50;54.60
56300;DHT22;42209;6.376;-10.782;2023-08-07T11:04:55;21.50;54.30
56300;DHT22;42209;6.376;-10.782;2023-08-07T11:07:28;21.40;54.10
56300;DHT22;42209;6.376;-10.782;2023-08-07T11:09:58;21.60;59.90
56300;DHT22;42209;6.376;-10.782;2023-08-07T11:12:28;21.80;63.50
56300;DHT22;42209;6.376;-10.782;2023-08-07T11:14:56;21.90;66.60
56300;DHT22;42209;6.376;-10.782;2023-08-07T11:17:25;22.00;69.00
56300;DHT22;42209;6.376;-10.782;2023-08-07T11:19:57;22.10;70.90
56300;DHT22;42209;6.376;-10.782;2023-08-07T11:22:25;22.20;72.40
56300;DHT22;42209;6.376;-10.782;2023-08-07T11:24:54;22.30;73.30
56300;DHT22;42209;6.376;-10.782;2023-08-07T11:27:22;22.40;73.80
56300;DHT22;42209;6.376;-10.782;2023-08-07T11:29:51;22.50;74.20
56300;DHT22;42209;6.376;-10.782;2023-08-07T11:32:21;22.60;73.80
56300;DHT22;42209;6.376;-10.782;2023-08-07T11:34:53;22.70;73.60
56300;DHT22;42209;6.376;-10.782;2023-08-07T11:37:22;22.80;73.60
56300;DHT22;42209;6.376;-10.782;2023-08-07T11:39:50;22.90;71.80
56300;DHT22;42209;6.376;-10.782;2023-08-07T11:42:22;22.70;66.40
56300;DHT22;42209;6.376;-10.782;2023-08-07T11:44:50;22.40;63.70
56300;DHT22;42209;6.376;-10.782;2023-08-07T11:47:19;22.20;62.80
56300;DHT22;42209;6.376;-10.782;2023-08-07T11:49:48;22.10;60.40
56300;DHT22;42209;6.376;-10.782;2023-08-07T11:52:16;22.00;59.30
56300;DHT22;42209;6.376;-10.782;2023-08-07T11:54:47;21.80;58.10
56300;DHT22;42209;6.376;-10.782;2023-08-07T11:57:17;21.80;56.90
56300;DHT22;42209;6.376;-10.782;2023-08-07T11:59:52;21.70;56.30
56300;DHT22;42209;6.376;-10.782;2023-08-07T12:02:24;21.60;55.50
56300;DHT22;42209;6.376;-10.782;2023-08-07T12:04:58;21.60;54.50
56300;DHT22;42209;6.376;-10.782;2023-08-07T12:07:27;21.60;53.80
56300;DHT22;42209;6.376;-10.782;2023-08-07T12:10:03;21.50;53.50
56300;DHT22;42209;6.376;-10.782;2023-08-07T12:12:36;21.50;52.80
56300;DHT22;42209;6.376;-10.782;2023-08-07T12:15:09;21.40;52.40
56300;DHT22;42209;6.376;-10.782;2023-08-07T12:17:38;21.40;52.00
56300;DHT22;42209;6.376;-10.782;2023-08-07T12:20:07;21.40;51.60
56300;DHT22;42209;6.376;-10.782;2023-08-07T12:22:36;21.30;51.20
56300;DHT22;42209;6.376;-10.782;2023-08-07T12:25:05;21.30;51.30
56300;DHT22;42209;6.376;-10.782;2023-08-07T12:27:35;21.50;56.00
56300;DHT22;42209;6.376;-10.782;2023-08-07T12:30:04;21.70;61.80
56300;DHT22;42209;6.376;-10.782;2023-08-07T12:32:32;21.80;64.70
56300;DHT22;42209;6.376;-10.782;2023-08-07T12:35:01;22.00;66.90
56300;DHT22;42209;6.376;-10.782;2023-08-07T12:37:34;22.10;68.70
56300;DHT22;42209;6.376;-10.782;2023-08-07T12:40:02;22.20;70.60
56300;DHT22;42209;6.376;-10.782;2023-08-07T12:42:34;22.40;72.00
56300;DHT22;42209;6.376;-10.782;2023-08-07T12:45:02;22.50;72.20
56300;DHT22;42209;6.376;-10.782;2023-08-07T12:47:31;22.50;72.50
56300;DHT22;42209;6.376;-10.782;2023-08-07T12:50:00;22.60;72.50
56300;DHT22;42209;6.376;-10.782;2023-08-07T12:52:28;22.80;73.30
56300;DHT22;42209;6.376;-10.782;2023-08-07T12:54:56;22.80;69.60
56300;DHT22;42209;6.376;-10.782;2023-08-07T12:57:25;22.60;64.90
56300;DHT22;42209;6.376;-10.782;2023-08-07T12:59:54;22.40;62.50
56300;DHT22;42209;6.376;-10.782;2023-08-07T13:02:23;22.20;60.90
56300;DHT22;42209;6.376;-10.782;2023-08-07T13:04:52;22.00;59.60
56300;DHT22;42209;6.376;-10.782;2023-08-07T13:07:20;21.90;58.30
56300;DHT22;42209;6.376;-10.782;2023-08-07T13:09:49;21.80;57.20
56300;DHT22;42209;6.376;-10.782;2023-08-07T13:12:17;21.70;56.30
56300;DHT22;42209;6.376;-10.782;2023-08-07T13:14:46;21.70;55.30
56300;DHT22;42209;6.376;-10.782;2023-08-07T13:17:15;21.70;54.90
56300;DHT22;42209;6.376;-10.782;2023-08-07T13:19:43;21.60;54.10
56300;DHT22;42209;6.376;-10.782;2023-08-07T13:22:11;21.60;53.80
56300;DHT22;42209;6.376;-10.782;2023-08-07T13:24:40;21.60;53.40
56300;DHT22;42209;6.376;-10.782;2023-08-07T13:27:08;21.50;52.90
56300;DHT22;42209;6.376;-10.782;2023-08-07T13:29:37;21.40;52.20
56300;DHT22;42209;6.376;-10.782;2023-08-07T13:32:06;21.40;51.90
56300;DHT22;42209;6.376;-10.782;2023-08-07T13:34:35;21.40;51.50
56300;DHT22;42209;6.376;-10.782;2023-08-07T13:37:07;21.40;51.00
56300;DHT22;42209;6.376;-10.782;2023-08-07T13:39:35;21.40;50.90
56300;DHT22;42209;6.376;-10.782;2023-08-07T13:42:04;21.40;50.30
56300;DHT22;42209;6.376;-10.782;2023-08-07T13:44:32;21.30;50.20
56300;DHT22;42209;6.376;-10.782;2023-08-07T13:47:01;21.30;50.20
56300;DHT22;42209;6.376;-10.782;2023-08-07T13:49:29;21.30;49.60
56300;DHT22;42209;6.376;-10.782;2023-08-07T13:51:58;21.20;49.50
56300;DHT22;42209;6.376;-10.782;2023-08-07T13:54:26;21.20;49.10
56300;DHT22;42209;6.376;-10.782;2023-08-07T13:56:55;21.20;49.10
56300;DHT22;42209;6.376;-10.782;2023-08-07T13:59:23;21.20;48.50
56300;DHT22;42209;6.376;-10.782;2023-08-07T14:01:53;21.10;48.50
56300;DHT22;42209;6.376;-10.782;2023-08-07T14:04:23;21.10;48.60
56300;DHT22;42209;6.376;-10.782;2023-08-07T14:06:51;21.30;53.30
56300;DHT22;42209;6.376;-10.782;2023-08-07T14:09:20;21.60;57.70
56300;DHT22;42209;6.376;-10.782;2023-08-07T14:11:49;21.70;60.90
56300;DHT22;42209;6.376;-10.782;2023-08-07T14:14:18;21.90;63.50
56300;DHT22;42209;6.376;-10.782;2023-08-07T14:16:47;22.00;65.40
56300;DHT22;42209;6.376;-10.782;2023-08-07T14:19:16;22.10;67.40
56300;DHT22;42209;6.376;-10.782;2023-08-07T14:21:44;22.20;68.30
56300;DHT22;42209;6.376;-10.782;2023-08-07T14:24:12;22.30;69.30
56300;DHT22;42209;6.376;-10.782;2023-08-07T14:26:41;22.40;68.70
56300;DHT22;42209;6.376;-10.782;2023-08-07T14:29:10;22.60;69.50
56300;DHT22;42209;6.376;-10.782;2023-08-07T14:31:38;22.70;68.90
56300;DHT22;42209;6.376;-10.782;2023-08-07T14:34:06;22.80;67.40
56300;DHT22;42209;6.376;-10.782;2023-08-07T14:36:36;22.60;62.60
56300;DHT22;42209;6.376;-10.782;2023-08-07T14:39:04;22.30;60.20
56300;DHT22;42209;6.376;-10.782;2023-08-07T14:41:33;22.10;58.40
56300;DHT22;42209;6.376;-10.782;2023-08-07T14:44:01;22.00;57.10
56300;DHT22;42209;6.376;-10.782;2023-08-07T14:46:33;21.90;56.30
56300;DHT22;42209;6.376;-10.782;2023-08-07T14:49:01;21.80;55.20
56300;DHT22;42209;6.376;-10.782;2023-08-07T14:51:30;21.60;54.60
56300;DHT22;42209;6.376;-10.782;2023-08-07T14:53:59;21.60;53.90
56300;DHT22;42209;6.376;-10.782;2023-08-07T14:56:30;21.60;53.10
56300;DHT22;42209;6.376;-10.782;2023-08-07T14:58:59;21.50;52.20
56300;DHT22;42209;6.376;-10.782;2023-08-07T15:01:27;21.50;51.80
56300;DHT22;42209;6.376;-10.782;2023-08-07T15:03:56;21.40;51.30
56300;DHT22;42209;6.376;-10.782;2023-08-07T15:06:25;21.50;50.50
56300;DHT22;42209;6.376;-10.782;2023-08-07T15:08:53;21.30;50.40
56300;DHT22;42209;6.376;-10.782;2023-08-07T15:11:21;21.30;51.10
56300;DHT22;42209;6.376;-10.782;2023-08-07T15:13:50;21.60;56.70
56300;DHT22;42209;6.376;-10.782;2023-08-07T15:16:19;21.80;61.60
56300;DHT22;42209;6.376;-10.782;2023-08-07T15:18:48;22.00;64.20
56300;DHT22;42209;6.376;-10.782;2023-08-07T15:21:23;22.10;66.00
56300;DHT22;42209;6.376;-10.782;2023-08-07T15:23:53;22.20;68.30
56300;DHT22;42209;6.376;-10.782;2023-08-07T15:26:21;22.30;69.50
56300;DHT22;42209;6.376;-10.782;2023-08-07T15:28:50;22.40;70.60
56300;DHT22;42209;6.376;-10.782;2023-08-07T15:31:18;22.60;70.70